createdAt,value
2023-04-23T00:00:13.634Z,9.59
2023-04-23T00:02:47.086Z,9.61
2023-04-23T00:05:16.798Z,9.63
2023-04-23T00:07:45.438Z,9.63
2023-04-23T00:10:14.226Z,9.63
2023-04-23T00:12:44.529Z,9.64
2023-04-23T00:15:14.798Z,9.65
2023-04-23T00:17:43.047Z,9.64
2023-04-23T00:20:11.842Z,9.61
2023-04-23T00:22:39.981Z,9.62
2023-04-23T00:25:08.767Z,9.62
2023-04-23T00:27:37.030Z,9.57
2023-04-23T00:30:09.162Z,9.55
2023-04-23T00:32:37.475Z,9.48
2023-04-23T00:35:06.414Z,9.43
2023-04-23T00:37:34.667Z,9.42
2023-04-23T00:40:04.716Z,9.39
2023-04-23T00:42:33.193Z,9.35
2023-04-23T00:45:03.116Z,9.31
2023-04-23T00:47:33.670Z,9.26
2023-04-23T00:50:02.200Z,9.20
2023-04-23T00:52:30.814Z,9.18
2023-04-23T00:54:59.094Z,9.17
2023-04-23T00:57:28.134Z,9.14
2023-04-23T00:59:59.575Z,9.13
2023-04-23T01:02:28.781Z,9.14
2023-04-23T01:05:00.026Z,9.12
2023-04-23T01:07:28.873Z,9.14
2023-04-23T01:09:57.433Z,9.12
2023-04-23T01:12:25.944Z,9.11
2023-04-23T01:14:54.630Z,9.08
2023-04-23T01:17:23.109Z,9.06
2023-04-23T01:19:51.674Z,9.05
2023-04-23T01:22:22.353Z,9.07
2023-04-23T01:24:51.688Z,9.07
2023-04-23T01:27:21.070Z,9.07
2023-04-23T01:29:50.408Z,9.08
2023-04-23T01:32:19.045Z,9.10
2023-04-23T01:34:48.980Z,9.09
2023-04-23T01:37:18.228Z,9.07
2023-04-23T01:39:47.948Z,9.08
2023-04-23T01:42:16.070Z,9.05
2023-04-23T01:44:44.388Z,9.07
2023-04-23T01:47:12.587Z,9.07
2023-04-23T01:49:40.975Z,9.05
2023-04-23T01:52:09.371Z,9.07
2023-04-23T01:54:37.704Z,9.07
2023-04-23T01:57:07.420Z,9.07
2023-04-23T01:59:35.645Z,9.08
2023-04-23T02:02:04.098Z,9.09
2023-04-23T02:04:32.657Z,9.11
2023-04-23T02:07:01.456Z,9.13
2023-04-23T02:09:29.996Z,9.11
2023-04-23T02:11:59.794Z,9.11
2023-04-23T02:14:29.526Z,9.12
2023-04-23T02:16:58.037Z,9.10
2023-04-23T02:19:26.290Z,9.09
2023-04-23T02:21:54.583Z,9.08
2023-04-23T02:24:23.197Z,9.11
2023-04-23T02:26:51.356Z,9.10
2023-04-23T02:29:19.616Z,9.09
2023-04-23T02:31:49.309Z,9.09
2023-04-23T02:34:17.414Z,9.11
2023-04-23T02:36:45.583Z,9.11
2023-04-23T02:39:13.904Z,9.10
2023-04-23T02:41:42.058Z,9.08
2023-04-23T02:44:10.218Z,9.09
2023-04-23T02:46:38.731Z,9.08
2023-04-23T02:49:08.383Z,9.07
2023-04-23T02:51:36.633Z,9.08
2023-04-23T02:54:06.122Z,9.09
2023-04-23T02:56:34.820Z,9.08
2023-04-23T02:59:02.989Z,9.07
2023-04-23T03:01:31.508Z,9.04
2023-04-23T03:04:00.736Z,9.05
2023-04-23T03:06:32.086Z,9.05
2023-04-23T03:09:00.450Z,9.05
2023-04-23T03:11:28.624Z,9.04
2023-04-23T03:13:56.980Z,9.06
2023-04-23T03:16:25.977Z,9.06
2023-04-23T03:18:54.236Z,9.10
2023-04-23T03:21:22.643Z,9.09
2023-04-23T03:23:52.315Z,9.11
2023-04-23T03:26:20.480Z,9.10
2023-04-23T03:28:48.775Z,9.11
2023-04-23T03:31:17.153Z,9.10
2023-04-23T03:33:45.483Z,9.08
2023-04-23T03:36:13.731Z,9.07
2023-04-23T03:38:41.862Z,9.09
2023-04-23T03:41:12.464Z,9.09
2023-04-23T03:43:40.762Z,9.09
2023-04-23T03:46:08.938Z,9.04
2023-04-23T03:48:37.137Z,8.98
2023-04-23T03:51:05.760Z,8.92
2023-04-23T03:53:33.966Z,8.89
2023-04-23T03:56:02.160Z,8.85
2023-04-23T03:58:31.761Z,8.85
2023-04-23T04:01:00.016Z,8.84
2023-04-23T04:03:29.311Z,8.81
2023-04-23T04:05:57.764Z,8.80
2023-04-23T04:08:26.762Z,8.82
2023-04-23T04:10:55.104Z,8.84
2023-04-23T04:13:24.002Z,8.85
2023-04-23T04:15:54.574Z,8.86
2023-04-23T04:18:22.890Z,8.89
2023-04-23T04:20:52.399Z,8.84
2023-04-23T04:23:20.739Z,8.86
2023-04-23T04:25:51.154Z,8.87
2023-04-23T04:28:19.414Z,8.85
2023-04-23T04:30:49.539Z,8.84
2023-04-23T04:33:19.183Z,8.85
2023-04-23T04:35:49.147Z,8.87
2023-04-23T04:38:17.326Z,8.86
2023-04-23T04:40:48.981Z,8.90
2023-04-23T04:43:18.543Z,8.89
2023-04-23T04:45:46.758Z,8.91
2023-04-23T04:48:15.109Z,8.92
2023-04-23T04:50:44.673Z,8.94
2023-04-23T04:53:14.646Z,8.91
2023-04-23T04:55:43.115Z,8.90
2023-04-23T04:58:11.531Z,8.87
2023-04-23T05:00:39.789Z,8.92
2023-04-23T05:03:08.982Z,8.89
2023-04-23T05:05:38.607Z,8.89
2023-04-23T05:08:08.816Z,8.88
2023-04-23T05:10:37.002Z,8.89
2023-04-23T05:13:05.319Z,8.88
2023-04-23T05:15:33.514Z,8.89
2023-04-23T05:18:01.874Z,8.87
2023-04-23T05:20:30.078Z,8.88
2023-04-23T05:22:59.668Z,8.89
2023-04-23T05:25:30.411Z,8.89
2023-04-23T05:27:58.915Z,8.90
2023-04-23T05:30:27.215Z,8.90
2023-04-23T05:32:55.681Z,8.90
2023-04-23T05:35:24.947Z,8.91
2023-04-23T05:37:53.127Z,8.91
2023-04-23T05:40:21.396Z,8.92
2023-04-23T05:42:50.941Z,8.98
2023-04-23T05:45:19.247Z,9.01
2023-04-23T05:47:47.504Z,9.01
2023-04-23T05:50:15.709Z,9.06
2023-04-23T05:52:43.884Z,9.10
2023-04-23T05:55:12.291Z,9.12
2023-04-23T05:57:40.550Z,9.14
2023-04-23T06:00:11.897Z,9.16
2023-04-23T06:02:40.147Z,9.13
2023-04-23T06:05:09.604Z,9.12
2023-04-23T06:07:38.133Z,9.07
2023-04-23T06:10:07.220Z,9.03
2023-04-23T06:12:39.169Z,9.01
2023-04-23T06:15:11.488Z,9.01
2023-04-23T06:17:40.556Z,9.05
2023-04-23T06:20:12.077Z,9.07
2023-04-23T06:22:40.696Z,9.11
2023-04-23T06:25:09.687Z,9.17
2023-04-23T06:27:37.793Z,9.18
2023-04-23T06:30:07.043Z,9.20
2023-04-23T06:32:36.996Z,9.25
2023-04-23T06:35:06.391Z,9.30
2023-04-23T06:37:34.907Z,9.35
2023-04-23T06:40:03.160Z,9.42
2023-04-23T06:42:31.362Z,9.50
2023-04-23T06:45:06.060Z,9.58
2023-04-23T06:47:36.162Z,9.66
2023-04-23T06:50:06.017Z,9.68
2023-04-23T06:52:34.323Z,9.71
2023-04-23T06:55:02.557Z,9.75
2023-04-23T06:57:30.772Z,9.75
2023-04-23T07:00:00.489Z,9.81
2023-04-23T07:02:28.764Z,9.86
2023-04-23T07:04:58.522Z,9.92
2023-04-23T07:07:26.923Z,9.98
2023-04-23T07:09:55.233Z,10.02
2023-04-23T07:12:23.555Z,10.01
2023-04-23T07:14:53.639Z,10.08
2023-04-23T07:17:21.929Z,10.09
2023-04-23T07:19:50.740Z,10.14
2023-04-23T07:22:20.594Z,10.18
2023-04-23T07:24:48.835Z,10.19
2023-04-23T07:27:17.007Z,10.24
2023-04-23T07:29:45.240Z,10.31
2023-04-23T07:32:13.576Z,10.43
2023-04-23T07:34:42.335Z,10.54
2023-04-23T07:37:11.049Z,10.58
2023-04-23T07:39:43.826Z,10.60
2023-04-23T07:42:12.416Z,10.65
2023-04-23T07:44:41.173Z,10.66
2023-04-23T07:47:09.751Z,10.63
2023-04-23T07:49:38.051Z,10.60
2023-04-23T07:52:06.361Z,10.60
2023-04-23T07:54:34.571Z,10.55
2023-04-23T07:57:04.401Z,10.57
2023-04-23T07:59:32.675Z,10.58
2023-04-23T08:02:00.903Z,10.61
2023-04-23T08:04:29.381Z,10.63
2023-04-23T08:06:58.814Z,10.71
2023-04-23T08:09:27.181Z,10.80
2023-04-23T08:11:55.549Z,10.87
2023-04-23T08:14:25.200Z,10.93
2023-04-23T08:16:53.408Z,10.97
2023-04-23T08:19:21.610Z,10.99
2023-04-23T08:21:50.871Z,11.05
2023-04-23T08:24:19.491Z,11.06
2023-04-23T08:26:48.506Z,11.08
2023-04-23T08:29:16.566Z,11.09
2023-04-23T08:31:46.338Z,11.08
2023-04-23T08:34:15.113Z,11.10
2023-04-23T08:36:43.470Z,11.15
2023-04-23T08:39:11.657Z,11.24
2023-04-23T08:41:43.004Z,11.31
2023-04-23T08:44:18.483Z,11.39
2023-04-23T08:46:48.115Z,11.44
2023-04-23T08:49:18.009Z,11.49
2023-04-23T08:51:51.016Z,11.54
2023-04-23T08:54:26.837Z,11.60
2023-04-23T08:56:58.514Z,11.70
2023-04-23T08:59:27.334Z,11.73
2023-04-23T09:01:57.842Z,11.83
2023-04-23T09:04:27.000Z,11.83
2023-04-23T09:06:56.922Z,11.80
2023-04-23T09:09:26.916Z,11.75
2023-04-23T09:11:55.169Z,11.75
2023-04-23T09:14:25.220Z,11.72
2023-04-23T09:16:54.537Z,11.69
2023-04-23T09:19:25.417Z,11.78
2023-04-23T09:21:54.359Z,11.91
2023-04-23T09:24:24.034Z,12.06
2023-04-23T09:26:54.927Z,12.20
2023-04-23T09:29:24.771Z,12.22
2023-04-23T09:31:55.487Z,12.14
2023-04-23T09:34:27.893Z,11.98
2023-04-23T09:36:56.602Z,11.91
2023-04-23T09:39:25.539Z,11.97
2023-04-23T09:41:54.531Z,12.19
2023-04-23T09:44:23.906Z,12.40
2023-04-23T09:46:52.181Z,12.59
2023-04-23T09:49:20.868Z,12.72
2023-04-23T09:51:51.329Z,12.86
2023-04-23T09:54:21.875Z,13.02
2023-04-23T09:56:53.898Z,13.15
2023-04-23T09:59:32.597Z,13.28
2023-04-23T10:02:12.789Z,13.43
2023-04-23T10:04:42.217Z,13.63
2023-04-23T10:07:19.855Z,13.77
2023-04-23T10:09:49.300Z,13.77
2023-04-23T10:14:53.945Z,13.63
2023-04-23T10:17:22.271Z,13.71
2023-04-23T10:19:51.690Z,13.75
2023-04-23T10:22:23.976Z,13.68
2023-04-23T10:24:56.127Z,13.57
2023-04-23T10:27:40.557Z,13.42
2023-04-23T10:30:17.605Z,13.28
2023-04-23T10:32:48.193Z,13.11
2023-04-23T10:35:16.292Z,12.91
2023-04-23T10:37:47.074Z,12.83
2023-04-23T10:40:16.581Z,12.78
2023-04-23T10:42:45.556Z,12.71
2023-04-23T10:45:24.034Z,12.69
2023-04-23T10:47:55.485Z,12.69
2023-04-23T10:50:26.771Z,12.63
2023-04-23T10:52:58.152Z,12.63
2023-04-23T10:55:28.675Z,12.60
2023-04-23T10:58:00.891Z,12.62
2023-04-23T11:00:32.312Z,12.64
2023-04-23T11:03:00.784Z,12.69
2023-04-23T11:05:29.407Z,12.75
2023-04-23T11:08:18.817Z,12.82
2023-04-23T11:10:56.263Z,12.97
2023-04-23T11:13:26.174Z,13.09
2023-04-23T11:16:18.628Z,13.18
2023-04-23T11:19:00.311Z,13.20
2023-04-23T11:22:02.421Z,13.11
2023-04-23T11:24:34.582Z,13.10
2023-04-23T11:27:02.955Z,13.01
2023-04-23T11:29:31.212Z,12.90
2023-04-23T11:32:02.951Z,12.93
2023-04-23T11:34:32.138Z,12.90
2023-04-23T11:37:01.556Z,12.81
2023-04-23T11:39:29.970Z,12.64
2023-04-23T11:42:03.604Z,12.47
2023-04-23T11:44:32.303Z,12.35
2023-04-23T11:47:02.822Z,12.24
2023-04-23T11:49:31.264Z,12.17
2023-04-23T11:52:02.241Z,12.14
2023-04-23T11:54:30.827Z,12.13
2023-04-23T11:57:01.580Z,12.13
2023-04-23T11:59:30.123Z,12.13
2023-04-23T12:02:00.501Z,12.12
2023-04-23T12:04:30.442Z,12.16
2023-04-23T12:07:00.301Z,12.16
2023-04-23T12:09:30.044Z,12.18
2023-04-23T12:12:00.418Z,12.19
2023-04-23T12:14:30.830Z,12.24
2023-04-23T12:17:10.311Z,12.28
2023-04-23T12:19:38.516Z,12.38
2023-04-23T12:22:08.695Z,12.49
2023-04-23T12:24:48.638Z,12.54
2023-04-23T12:27:22.129Z,12.56
2023-04-23T12:29:51.330Z,12.56
2023-04-23T12:32:23.213Z,12.43
2023-04-23T12:34:55.912Z,12.28
2023-04-23T12:37:27.174Z,12.20
2023-04-23T12:39:57.085Z,12.19
2023-04-23T12:42:27.136Z,12.16
2023-04-23T12:44:56.819Z,12.17
2023-04-23T12:47:25.137Z,12.23
2023-04-23T12:49:55.756Z,12.26
2023-04-23T12:52:24.066Z,12.56
2023-04-23T12:54:56.467Z,12.89
2023-04-23T12:57:27.801Z,13.20
2023-04-23T12:59:56.591Z,13.46
2023-04-23T13:02:26.807Z,13.74
2023-04-23T13:05:01.166Z,13.90
2023-04-23T13:07:30.120Z,13.94
2023-04-23T13:09:59.750Z,13.99
2023-04-23T13:12:29.335Z,14.09
2023-04-23T13:14:57.723Z,14.22
2023-04-23T13:17:26.551Z,14.41
2023-04-23T13:19:55.703Z,14.57
2023-04-23T13:22:28.563Z,14.79
2023-04-23T13:24:57.317Z,15.02
2023-04-23T13:27:27.427Z,15.24
2023-04-23T13:29:57.290Z,15.49
2023-04-23T13:32:27.547Z,15.57
2023-04-23T13:35:00.589Z,15.58
2023-04-23T13:37:28.763Z,15.29
2023-04-23T13:39:56.875Z,14.94
2023-04-23T13:42:25.065Z,14.65
2023-04-23T13:44:56.372Z,14.29
2023-04-23T13:47:27.021Z,14.01
2023-04-23T13:49:55.204Z,13.84
2023-04-23T13:52:23.478Z,14.01
2023-04-23T13:54:52.972Z,14.12
2023-04-23T13:57:21.180Z,14.22
2023-04-23T13:59:49.535Z,14.34
2023-04-23T14:02:17.702Z,14.49
2023-04-23T14:04:47.345Z,14.64
2023-04-23T14:07:15.611Z,14.78
2023-04-23T14:09:44.980Z,14.78
2023-04-23T14:12:13.470Z,14.70
2023-04-23T14:14:41.798Z,14.71
2023-04-23T14:17:09.975Z,14.63
2023-04-23T14:19:38.201Z,14.66
2023-04-23T14:22:07.860Z,14.56
2023-04-23T14:24:40.631Z,14.47
2023-04-23T14:27:08.879Z,14.35
2023-04-23T14:29:42.371Z,14.19
2023-04-23T14:32:10.918Z,14.02
2023-04-23T14:34:39.698Z,13.89
2023-04-23T14:37:09.537Z,13.74
2023-04-23T14:39:37.839Z,13.61
2023-04-23T14:42:06.364Z,13.46
2023-04-23T14:44:34.626Z,13.32
2023-04-23T14:47:02.736Z,13.24
2023-04-23T14:49:31.081Z,13.14
2023-04-23T14:51:59.765Z,12.99
2023-04-23T14:54:29.321Z,12.86
2023-04-23T14:56:57.757Z,12.69
2023-04-23T14:59:25.985Z,12.50
2023-04-23T15:01:54.262Z,12.37
2023-04-23T15:04:22.579Z,12.24
2023-04-23T15:06:50.982Z,12.13
2023-04-23T15:09:19.194Z,12.06
2023-04-23T15:11:48.906Z,12.03
2023-04-23T15:14:25.792Z,11.97
2023-04-23T15:16:54.247Z,11.97
2023-04-23T15:19:22.626Z,11.96
2023-04-23T15:21:51.078Z,11.97
2023-04-23T15:24:19.409Z,12.02
2023-04-23T15:26:49.891Z,12.13
2023-04-23T15:29:18.079Z,12.22
2023-04-23T15:31:46.307Z,12.31
2023-04-23T15:34:14.455Z,12.42
2023-04-23T15:36:42.598Z,12.54
2023-04-23T15:39:11.043Z,12.63
2023-04-23T15:41:40.982Z,12.68
2023-04-23T15:44:12.777Z,12.74
2023-04-23T15:46:41.324Z,12.78
2023-04-23T15:49:09.651Z,12.83
2023-04-23T15:51:38.480Z,12.89
2023-04-23T15:54:08.713Z,12.99
2023-04-23T15:56:37.884Z,13.09
2023-04-23T15:59:06.286Z,13.15
2023-04-23T16:01:36.537Z,13.18
2023-04-23T16:06:35.922Z,13.17
2023-04-23T16:09:07.312Z,13.23
2023-04-23T16:11:36.277Z,13.21
2023-04-23T16:14:04.947Z,13.23
2023-04-23T16:16:33.286Z,13.20
2023-04-23T16:19:03.415Z,13.15
2023-04-23T16:21:32.264Z,13.03
2023-04-23T16:24:00.805Z,12.97
2023-04-23T16:26:29.426Z,12.96
2023-04-23T16:29:11.403Z,12.95
2023-04-23T16:31:46.336Z,12.90
2023-04-23T16:34:16.166Z,12.92
2023-04-23T16:36:44.464Z,12.89
2023-04-23T16:39:12.766Z,12.88
2023-04-23T16:41:40.894Z,12.81
2023-04-23T16:44:09.158Z,12.79
2023-04-23T16:46:37.935Z,12.75
2023-04-23T16:49:06.100Z,12.70
2023-04-23T16:51:36.631Z,12.66
2023-04-23T16:54:04.964Z,12.59
2023-04-23T16:56:33.195Z,12.60
2023-04-23T16:59:02.091Z,12.59
2023-04-23T17:01:30.429Z,12.62
2023-04-23T17:03:58.979Z,12.68
2023-04-23T17:06:29.061Z,12.74
2023-04-23T17:09:00.431Z,12.75
2023-04-23T17:11:29.722Z,12.77
2023-04-23T17:13:58.804Z,12.77
2023-04-23T17:16:27.707Z,12.76
2023-04-23T17:18:56.647Z,12.76
2023-04-23T17:21:26.004Z,12.77
2023-04-23T17:23:54.378Z,12.80
2023-04-23T17:26:24.384Z,12.86
2023-04-23T17:28:52.638Z,12.90
2023-04-23T17:31:21.147Z,12.92
2023-04-23T17:33:50.464Z,12.92
2023-04-23T17:36:18.761Z,12.91
2023-04-23T17:38:47.199Z,12.88
2023-04-23T17:41:16.867Z,12.86
2023-04-23T17:43:46.738Z,12.86
2023-04-23T17:46:15.038Z,12.85
2023-04-23T17:48:43.581Z,12.83
2023-04-23T17:51:11.820Z,12.83
2023-04-23T17:53:42.223Z,12.81
2023-04-23T17:56:13.637Z,12.80
2023-04-23T17:58:42.117Z,12.78
2023-04-23T18:01:11.917Z,12.81
2023-04-23T18:03:40.318Z,12.81
2023-04-23T18:06:09.370Z,12.78
2023-04-23T18:08:39.026Z,12.74
2023-04-23T18:11:08.953Z,12.69
2023-04-23T18:13:37.527Z,12.67
2023-04-23T18:16:05.908Z,12.62
2023-04-23T18:18:35.703Z,12.61
2023-04-23T18:21:04.699Z,12.59
2023-04-23T18:23:32.971Z,12.57
2023-04-23T18:26:02.175Z,12.56
2023-04-23T18:28:30.461Z,12.52
2023-04-23T18:31:02.703Z,12.48
2023-04-23T18:33:33.826Z,12.48
2023-04-23T18:36:14.858Z,12.49
2023-04-23T18:38:45.827Z,12.46
2023-04-23T18:41:16.240Z,12.45
2023-04-23T18:43:44.416Z,12.42
2023-04-23T18:46:12.835Z,12.41
2023-04-23T18:48:47.108Z,12.40
2023-04-23T18:51:26.643Z,12.37
2023-04-23T18:53:54.874Z,12.35
2023-04-23T18:56:25.076Z,12.33
2023-04-23T18:58:53.369Z,12.32
2023-04-23T19:01:21.682Z,12.27
2023-04-23T19:03:51.905Z,12.24
2023-04-23T19:06:21.794Z,12.24
2023-04-23T19:08:50.064Z,12.21
2023-04-23T19:11:18.377Z,12.18
2023-04-23T19:13:46.827Z,12.10
2023-04-23T19:16:16.782Z,12.06
2023-04-23T19:18:45.596Z,12.02
2023-04-23T19:21:13.929Z,11.96
2023-04-23T19:23:44.052Z,11.91
2023-04-23T19:26:12.284Z,11.86
2023-04-23T19:28:40.805Z,11.83
2023-04-23T19:31:09.344Z,11.77
2023-04-23T19:33:37.548Z,11.74
2023-04-23T19:36:06.090Z,11.68
2023-04-23T19:38:34.453Z,11.62
2023-04-23T19:41:03.983Z,11.60
2023-04-23T19:43:32.242Z,11.58
2023-04-23T19:46:00.673Z,11.55
2023-04-23T19:48:28.908Z,11.50
2023-04-23T19:50:57.190Z,11.47
2023-04-23T19:53:26.647Z,11.41
2023-04-23T19:55:54.794Z,11.38
2023-04-23T19:58:24.545Z,11.35
2023-04-23T20:00:52.769Z,11.35
2023-04-23T20:03:21.438Z,11.30
2023-04-23T20:05:49.960Z,11.26
2023-04-23T20:08:26.214Z,11.25
2023-04-23T20:10:54.624Z,11.23
2023-04-23T20:13:24.948Z,11.24
2023-04-23T20:15:55.218Z,11.25
2023-04-23T20:18:25.619Z,11.25
2023-04-23T20:20:53.967Z,11.22
2023-04-23T20:23:22.258Z,11.22
2023-04-23T20:25:50.517Z,11.17
2023-04-23T20:28:18.728Z,11.17
2023-04-23T20:30:48.422Z,11.15
2023-04-23T20:33:18.813Z,11.14
2023-04-23T20:35:47.918Z,11.11
2023-04-23T20:38:19.301Z,11.08
2023-04-23T20:40:47.731Z,11.08
2023-04-23T20:43:16.585Z,11.07
2023-04-23T20:45:46.822Z,11.05
2023-04-23T20:48:16.904Z,11.05
2023-04-23T20:50:45.138Z,11.06
2023-04-23T20:53:14.513Z,11.08
2023-04-23T20:55:42.731Z,11.09
2023-04-23T20:58:11.249Z,11.11
2023-04-23T21:00:39.621Z,11.10
2023-04-23T21:03:07.991Z,11.13
2023-04-23T21:06:00.504Z,11.16
2023-04-23T21:08:28.773Z,11.17
2023-04-23T21:10:57.642Z,11.17
2023-04-23T21:13:26.098Z,11.17
2023-04-23T21:15:54.702Z,11.16
2023-04-23T21:18:22.829Z,11.17
2023-04-23T21:20:52.900Z,11.17
2023-04-23T21:23:21.154Z,11.20
2023-04-23T21:25:49.475Z,11.20
2023-04-23T21:28:17.645Z,11.20
2023-04-23T21:30:49.039Z,11.19
2023-04-23T21:33:17.612Z,11.19
2023-04-23T21:35:45.946Z,11.16
2023-04-23T21:38:15.619Z,11.17
2023-04-23T21:40:44.624Z,11.17
2023-04-23T21:43:13.500Z,11.16
2023-04-23T21:45:41.710Z,11.17
2023-04-23T21:48:10.317Z,11.16
2023-04-23T21:50:38.544Z,11.16
2023-04-23T21:53:07.143Z,11.14
2023-04-23T21:55:36.876Z,11.13
2023-04-23T21:58:16.643Z,11.13
2023-04-23T22:00:46.176Z,11.11
2023-04-23T22:03:18.791Z,11.11
2023-04-23T22:05:59.522Z,11.12
2023-04-23T22:08:28.050Z,11.12
2023-04-23T22:10:57.723Z,11.14
2023-04-23T22:13:26.062Z,11.14
2023-04-23T22:15:54.630Z,11.15
2023-04-23T22:18:22.756Z,11.15
2023-04-23T22:20:51.223Z,11.15
2023-04-23T22:23:19.605Z,11.14
2023-04-23T22:25:48.046Z,11.13
2023-04-23T22:28:18.307Z,11.09
2023-04-23T22:30:46.621Z,11.08
2023-04-23T22:33:14.910Z,11.09
2023-04-23T22:35:43.274Z,11.10
2023-04-23T22:38:11.576Z,11.11
2023-04-23T22:40:39.776Z,11.12
2023-04-23T22:43:08.013Z,11.12
2023-04-23T22:45:37.822Z,11.15
2023-04-23T22:48:06.515Z,11.14
2023-04-23T22:50:34.840Z,11.15
2023-04-23T22:53:03.026Z,11.14
2023-04-23T22:55:31.202Z,11.14
2023-04-23T22:57:59.872Z,11.12
2023-04-23T23:00:28.200Z,11.13
2023-04-23T23:02:57.753Z,11.13
2023-04-23T23:05:26.346Z,11.12
2023-04-23T23:07:55.675Z,11.12
2023-04-23T23:10:23.889Z,11.11
2023-04-23T23:12:52.693Z,11.10
2023-04-23T23:15:21.014Z,11.10
2023-04-23T23:17:49.314Z,11.11
2023-04-23T23:20:19.965Z,11.14
2023-04-23T23:22:48.671Z,11.13
2023-04-23T23:25:17.177Z,11.12
2023-04-23T23:27:45.591Z,11.10
2023-04-23T23:30:14.235Z,11.09
2023-04-23T23:32:42.520Z,11.07
2023-04-23T23:35:11.501Z,11.08
2023-04-23T23:37:41.158Z,11.07
2023-04-23T23:40:10.833Z,11.06
2023-04-23T23:42:39.151Z,11.05
2023-04-23T23:45:10.030Z,11.02
2023-04-23T23:47:38.616Z,11.03
2023-04-23T23:50:08.030Z,10.99
2023-04-23T23:52:36.267Z,10.99
2023-04-23T23:55:07.156Z,10.97
2023-04-23T23:57:35.639Z,10.93
